<?xml version='1.0' encoding='UTF-8'?>
<gpx xmlns="http://www.topografix.com/GPX/1/1" creator="www.balnam.be" version="1.1" xmlns:xsi="http://www.w3.org/2001/XMLSchema-instance" xsi:schemaLocation="http://www.topografix.com/GPX/1/1 http://www.topografix.com/GPX/1/1/gpx.xsd">
<trk>
<name>bgnbt3</name>
<cmt>v</cmt>
<desc>Baisy-Thy Chemin n°3 Sentier du Bois de Bérine</desc>
<link href="https://chemins.be/baisythy/chemin/3"/><trkseg>
<trkpt lat="50.590541" lon="4.525761"><time>2026-05-02T20:23:33Z</time></trkpt>
<trkpt lat="50.592269" lon="4.523191"><time>2026-05-02T20:33:33Z</time></trkpt>
</trkseg></trk>
<trk>
<name>bgnbt3</name>
<cmt>s</cmt>
<desc>Baisy-Thy Chemin n°3 Sentier du Bois de Bérine</desc>
<link href="https://chemins.be/baisythy/chemin/3"/><trkseg>
<trkpt lat="50.592269" lon="4.523191"><time>2026-05-02T20:33:33Z</time></trkpt>
<trkpt lat="50.592437" lon="4.519666"><time>2026-05-02T20:43:33Z</time></trkpt>
<trkpt lat="50.592188" lon="4.515671"><time>2026-05-02T20:53:33Z</time></trkpt>
</trkseg></trk>
<trk>
<name>bgnbt3</name>
<cmt>v</cmt>
<desc>Baisy-Thy Chemin n°3 Sentier du Bois de Bérine</desc>
<link href="https://chemins.be/baisythy/chemin/3"/><trkseg>
<trkpt lat="50.592188" lon="4.515671"><time>2026-05-02T20:53:33Z</time></trkpt>
<trkpt lat="50.591881" lon="4.515359"><time>2026-05-02T21:03:33Z</time></trkpt>
</trkseg></trk>
<trk>
<name>bgnbt3</name>
<cmt>r</cmt>
<desc>Baisy-Thy Chemin n°3 Sentier du Bois de Bérine</desc>
<link href="https://chemins.be/baisythy/chemin/3"/><trkseg>
<trkpt lat="50.591881" lon="4.515359"><time>2026-05-02T21:03:33Z</time></trkpt>
<trkpt lat="50.591934" lon="4.512490"><time>2026-05-02T21:13:33Z</time></trkpt>
<trkpt lat="50.591736" lon="4.506185"><time>2026-05-02T21:23:33Z</time></trkpt>
</trkseg></trk>
<trk>
<name>bgnbt3</name>
<cmt>v</cmt>
<desc>Baisy-Thy Chemin n°3 Sentier du Bois de Bérine</desc>
<link href="https://chemins.be/baisythy/chemin/3"/><trkseg>
<trkpt lat="50.591736" lon="4.506185"><time>2026-05-02T21:23:33Z</time></trkpt>
<trkpt lat="50.592152" lon="4.503396"><time>2026-05-02T21:33:33Z</time></trkpt>
</trkseg></trk>
<trk>
<name>bgnbt3</name>
<cmt>s</cmt>
<desc>Baisy-Thy Chemin n°3 Sentier du Bois de Bérine</desc>
<link href="https://chemins.be/baisythy/chemin/3"/><trkseg>
<trkpt lat="50.592152" lon="4.503396"><time>2026-05-02T21:33:33Z</time></trkpt>
<trkpt lat="50.591766" lon="4.502674"><time>2026-05-02T21:43:33Z</time></trkpt>
<trkpt lat="50.591587" lon="4.501558"><time>2026-05-02T21:53:33Z</time></trkpt>
<trkpt lat="50.591697" lon="4.499837"><time>2026-05-02T22:03:33Z</time></trkpt>
<trkpt lat="50.591731" lon="4.499298"><time>2026-05-02T22:13:33Z</time></trkpt>
</trkseg></trk>
<trk>
<name>bgnbt3</name>
<cmt>v</cmt>
<desc>Baisy-Thy Chemin n°3 Sentier du Bois de Bérine</desc>
<link href="https://chemins.be/baisythy/chemin/3"/><trkseg>
<trkpt lat="50.591731" lon="4.499298"><time>2026-05-02T22:13:33Z</time></trkpt>
<trkpt lat="50.591524" lon="4.498628"><time>2026-05-02T22:23:33Z</time></trkpt>
</trkseg></trk>
<trk>
<name>bgnbt3</name>
<cmt>r</cmt>
<desc>Baisy-Thy Chemin n°3 Sentier du Bois de Bérine</desc>
<link href="https://chemins.be/baisythy/chemin/3"/><trkseg>
<trkpt lat="50.591524" lon="4.498628"><time>2026-05-02T22:23:33Z</time></trkpt>
<trkpt lat="50.591847" lon="4.497882"><time>2026-05-02T22:33:33Z</time></trkpt>
<trkpt lat="50.590793" lon="4.495422"><time>2026-05-02T22:43:33Z</time></trkpt>
<trkpt lat="50.590484" lon="4.494306"><time>2026-05-02T22:53:33Z</time></trkpt>
<trkpt lat="50.590602" lon="4.493619"><time>2026-05-02T23:03:33Z</time></trkpt>
</trkseg></trk>
<trk>
<name>bgnbt3</name>
<cmt>s</cmt>
<desc>Baisy-Thy Chemin n°3 Sentier du Bois de Bérine</desc>
<link href="https://chemins.be/baisythy/chemin/3"/><trkseg>
<trkpt lat="50.590602" lon="4.493619"><time>2026-05-02T23:03:33Z</time></trkpt>
<trkpt lat="50.591411" lon="4.492375"><time>2026-05-02T23:13:33Z</time></trkpt>
<trkpt lat="50.591983" lon="4.490243"><time>2026-05-02T23:23:33Z</time></trkpt>
</trkseg>
</trk>
</gpx>